Terminal Aerodrome Forecast
Issued by NWS

Home | Current Version | Previous Version | Text Only | Print | Product List | Glossary On
Versions: 1 2 3 4 5 6 7 8 9 10 11 12 13 14 15 16 17
000
FTUS43 KPAH 020520
TAFCGI
TAF
KCGI 020520Z 0206/0306 VRB04KT 5SM -SHRA BR VCTS SCT025CB BKN090
      TEMPO 0206/0209 VRB15G25KT 2SM TSRA BKN015CB
     FM020900 VRB03KT 4SM BR VCSH SCT020 BKN070
     FM021600 24011G18KT P6SM BKN025
     FM022200 33007KT P6SM BKN030=

USA.gov is the U.S. government's official web portal to all federal, state and local government web resources and services.